createdAt,value
2023-01-17T00:00:57.024Z,78.16
2023-01-17T00:04:00.975Z,77.59
2023-01-17T00:07:05.047Z,77.08
2023-01-17T00:09:53.311Z,77.42
2023-01-17T00:12:39.370Z,76.37
2023-01-17T00:15:25.957Z,77.60
2023-01-17T00:18:11.672Z,78.23
2023-01-17T00:21:15.797Z,76.38
2023-01-17T00:24:19.510Z,77.88
2023-01-17T00:27:13.846Z,79.80
2023-01-17T00:29:59.506Z,79.96
2023-01-17T00:32:44.709Z,77.88
2023-01-17T00:35:32.116Z,79.44
2023-01-17T00:38:20.223Z,77.18
2023-01-17T00:41:13.747Z,79.28
2023-01-17T00:44:18.965Z,78.39
2023-01-17T00:47:24.373Z,77.28
2023-01-17T00:50:29.160Z,78.48
2023-01-17T00:53:32.873Z,77.04
2023-01-17T00:56:36.665Z,75.66
2023-01-17T00:59:40.643Z,78.02
2023-01-17T01:02:45.739Z,77.95
2023-01-17T01:05:49.486Z,77.03
2023-01-17T01:08:53.486Z,76.85
2023-01-17T01:11:57.251Z,76.34
2023-01-17T01:15:01.236Z,77.52
2023-01-17T01:18:05.218Z,77.54
2023-01-17T01:21:09.055Z,77.38
2023-01-17T01:24:13.165Z,77.23
2023-01-17T01:27:17.996Z,79.52
2023-01-17T01:30:22.871Z,78.22
2023-01-17T01:33:19.068Z,77.66
2023-01-17T01:36:08.072Z,77.13
2023-01-17T01:38:54.631Z,78.00
2023-01-17T01:41:40.035Z,77.54
2023-01-17T01:44:49.779Z,75.64
2023-01-17T01:47:40.764Z,77.07
2023-01-17T01:50:28.031Z,76.00
2023-01-17T01:53:13.677Z,77.84
2023-01-17T01:55:59.507Z,77.45
2023-01-17T01:58:49.005Z,75.64
2023-01-17T02:01:34.631Z,77.87
2023-01-17T02:04:20.753Z,76.65
2023-01-17T02:07:14.680Z,77.72
2023-01-17T02:10:01.059Z,75.99
2023-01-17T02:12:47.199Z,76.28
2023-01-17T02:16:18.120Z,79.17
2023-01-17T02:19:15.842Z,77.44
2023-01-17T02:22:40.293Z,77.67
2023-01-17T02:25:50.744Z,76.95
2023-01-17T02:29:13.409Z,78.61
2023-01-17T02:32:07.404Z,75.97
2023-01-17T02:35:05.653Z,76.13
2023-01-17T02:38:00.547Z,76.16
2023-01-17T02:40:52.684Z,77.13
2023-01-17T02:43:39.592Z,77.04
2023-01-17T02:46:26.938Z,76.36
2023-01-17T02:49:12.645Z,78.81
2023-01-17T02:52:24.049Z,76.36
2023-01-17T02:55:36.884Z,77.37
2023-01-17T02:58:41.151Z,76.87
2023-01-17T03:01:46.373Z,77.27
2023-01-17T03:04:41.052Z,78.50
2023-01-17T03:07:28.818Z,78.28
2023-01-17T03:10:16.886Z,78.37
2023-01-17T03:13:03.254Z,76.89
2023-01-17T03:15:49.611Z,78.60
2023-01-17T03:18:35.238Z,77.96
2023-01-17T03:21:21.582Z,76.95
2023-01-17T03:24:07.457Z,76.87
2023-01-17T03:26:52.904Z,78.21
2023-01-17T03:29:38.462Z,77.40
2023-01-17T03:32:23.806Z,77.41
2023-01-17T03:35:09.491Z,77.91
2023-01-17T03:37:55.242Z,77.38
2023-01-17T03:40:41.660Z,78.31
2023-01-17T03:43:26.985Z,77.13
2023-01-17T03:46:27.477Z,77.87
2023-01-17T03:49:13.086Z,78.80
2023-01-17T03:51:59.099Z,77.97
2023-01-17T03:54:44.363Z,77.30
2023-01-17T03:57:29.772Z,76.33
2023-01-17T04:00:15.328Z,76.66
2023-01-17T04:03:00.947Z,77.63
2023-01-17T04:05:46.292Z,77.68
2023-01-17T04:08:31.777Z,76.17
2023-01-17T04:11:17.161Z,76.12
2023-01-17T04:14:02.419Z,76.58
2023-01-17T04:16:48.078Z,76.61
2023-01-17T04:19:36.435Z,77.19
2023-01-17T04:22:21.579Z,77.73
2023-01-17T04:25:07.394Z,78.47
2023-01-17T04:27:53.848Z,79.38
2023-01-17T04:30:39.552Z,78.91
2023-01-17T04:33:25.233Z,78.48
2023-01-17T04:36:11.011Z,78.92
2023-01-17T04:38:56.353Z,79.31
2023-01-17T04:41:41.704Z,79.24
2023-01-17T04:44:27.176Z,78.97
2023-01-17T04:47:12.707Z,78.12
2023-01-17T04:49:58.052Z,77.97
2023-01-17T04:52:43.607Z,79.44
2023-01-17T04:55:28.938Z,78.72
2023-01-17T04:58:14.326Z,79.82
2023-01-17T05:01:07.913Z,78.00
2023-01-17T05:03:53.710Z,79.63
2023-01-17T05:06:38.952Z,78.06
2023-01-17T05:09:24.474Z,79.52
2023-01-17T05:12:10.174Z,77.03
2023-01-17T05:14:55.390Z,78.50
2023-01-17T05:17:40.767Z,78.14
2023-01-17T05:20:26.720Z,77.98
2023-01-17T05:23:12.488Z,79.36
2023-01-17T05:25:57.814Z,80.01
2023-01-17T05:28:43.228Z,79.52
2023-01-17T05:31:28.630Z,78.23
2023-01-17T05:34:13.906Z,79.16
2023-01-17T05:36:59.492Z,80.62
2023-01-17T05:39:44.977Z,78.92
2023-01-17T05:42:30.370Z,80.34
2023-01-17T05:45:19.734Z,78.70
2023-01-17T05:48:06.722Z,79.79
2023-01-17T05:50:52.279Z,77.96
2023-01-17T05:53:37.941Z,79.88
2023-01-17T05:56:23.365Z,80.30
2023-01-17T05:59:08.820Z,80.54
2023-01-17T06:01:54.355Z,80.42
2023-01-17T06:04:39.751Z,80.17
2023-01-17T06:07:24.950Z,79.49
2023-01-17T06:10:10.946Z,78.19
2023-01-17T06:13:05.549Z,78.43
2023-01-17T06:15:51.390Z,77.16
2023-01-17T06:18:37.137Z,76.98
2023-01-17T06:21:22.373Z,78.52
2023-01-17T06:24:07.762Z,77.61
2023-01-17T06:26:53.190Z,77.09
2023-01-17T06:29:38.473Z,78.06
2023-01-17T06:32:23.937Z,77.03
2023-01-17T06:35:09.496Z,77.86
2023-01-17T06:37:58.157Z,77.63
2023-01-17T06:40:43.960Z,78.02
2023-01-17T06:43:32.641Z,77.64
2023-01-17T06:46:18.147Z,77.27
2023-01-17T06:49:04.042Z,78.69
2023-01-17T06:51:49.229Z,78.37
2023-01-17T06:54:34.653Z,78.13
2023-01-17T06:57:19.764Z,78.53
2023-01-17T07:00:07.222Z,77.66
2023-01-17T07:02:52.916Z,78.78
2023-01-17T07:05:38.292Z,79.33
2023-01-17T07:08:23.681Z,79.03
2023-01-17T07:11:10.604Z,79.24
2023-01-17T07:13:55.878Z,78.42
2023-01-17T07:16:46.012Z,77.57
2023-01-17T07:19:31.590Z,77.60
2023-01-17T07:22:16.956Z,78.23
2023-01-17T07:25:02.355Z,80.37
2023-01-17T07:27:47.959Z,80.73
2023-01-17T07:30:35.136Z,80.77
2023-01-17T07:33:20.756Z,79.70
2023-01-17T07:36:07.858Z,80.94
2023-01-17T07:38:53.444Z,80.37
2023-01-17T07:41:41.445Z,83.75
2023-01-17T07:44:26.830Z,82.99
2023-01-17T07:47:12.319Z,84.01
2023-01-17T07:49:57.572Z,82.98
2023-01-17T07:52:43.037Z,84.18
2023-01-17T07:55:28.591Z,83.18
2023-01-17T07:58:15.040Z,83.01
2023-01-17T08:01:22.698Z,81.60
2023-01-17T08:04:09.411Z,80.04
2023-01-17T08:06:55.223Z,79.42
2023-01-17T08:09:41.824Z,79.35
2023-01-17T08:12:29.452Z,79.79
2023-01-17T08:15:16.339Z,78.42
2023-01-17T08:18:01.669Z,78.81
2023-01-17T08:20:47.116Z,79.81
2023-01-17T08:23:32.530Z,79.33
2023-01-17T08:26:22.714Z,78.19
2023-01-17T08:29:09.297Z,78.09
2023-01-17T08:31:54.808Z,74.40
2023-01-17T08:34:40.696Z,74.47
2023-01-17T08:37:26.073Z,73.75
2023-01-17T08:40:12.116Z,75.09
2023-01-17T08:42:59.433Z,76.99
2023-01-17T08:45:47.112Z,77.52
2023-01-17T08:48:32.249Z,78.92
2023-01-17T08:51:17.589Z,79.20
2023-01-17T08:54:05.186Z,78.42
2023-01-17T08:56:52.846Z,78.28
2023-01-17T08:59:38.091Z,78.62
2023-01-17T09:03:53.138Z,78.33
2023-01-17T09:18:38.369Z,76.85
2023-01-17T09:21:24.586Z,78.22
2023-01-17T09:24:10.026Z,76.77
2023-01-17T09:26:55.861Z,75.80
2023-01-17T09:29:41.180Z,77.68
2023-01-17T09:32:26.483Z,78.75
2023-01-17T09:35:13.620Z,77.60
2023-01-17T09:37:59.126Z,78.18
2023-01-17T09:40:56.509Z,78.29
2023-01-17T09:44:09.443Z,77.28
2023-01-17T09:47:00.091Z,76.98
2023-01-17T09:49:47.129Z,77.67
2023-01-17T09:52:33.496Z,77.17
2023-01-17T09:55:20.229Z,77.34
2023-01-17T09:58:17.906Z,76.71
2023-01-17T10:01:19.176Z,76.62
2023-01-17T10:04:38.318Z,77.04
2023-01-17T10:07:49.297Z,78.15
2023-01-17T10:10:45.630Z,77.96
2023-01-17T10:14:03.959Z,77.34
2023-01-17T10:17:04.824Z,77.25
2023-01-17T10:20:34.175Z,76.71
2023-01-17T10:23:51.928Z,75.03
2023-01-17T10:26:38.356Z,77.68
2023-01-17T10:29:28.515Z,76.54
2023-01-17T10:32:14.887Z,77.34
2023-01-17T10:35:11.524Z,78.08
2023-01-17T10:38:03.718Z,77.35
2023-01-17T10:40:55.335Z,77.70
2023-01-17T10:43:56.001Z,77.11
2023-01-17T10:46:53.658Z,78.16
2023-01-17T10:49:45.118Z,76.51
2023-01-17T10:52:33.328Z,76.15
2023-01-17T10:55:27.249Z,75.01
2023-01-17T10:58:31.783Z,75.94
2023-01-17T11:01:20.263Z,74.89
2023-01-17T11:04:33.040Z,76.31
2023-01-17T11:07:26.672Z,76.14
2023-01-17T11:10:47.273Z,77.23
2023-01-17T11:13:36.202Z,76.54
2023-01-17T11:16:26.727Z,77.93
2023-01-17T11:19:36.143Z,77.03
2023-01-17T11:22:21.374Z,76.44
2023-01-17T11:25:07.235Z,76.13
2023-01-17T11:28:26.319Z,77.95
2023-01-17T11:31:16.616Z,76.13
2023-01-17T11:34:18.448Z,75.93
2023-01-17T11:37:19.277Z,76.13
2023-01-17T11:40:18.840Z,75.87
2023-01-17T11:43:18.757Z,76.38
2023-01-17T11:46:20.520Z,76.05
2023-01-17T11:49:21.933Z,74.25
2023-01-17T11:52:17.251Z,73.98
2023-01-17T11:55:02.720Z,75.29
2023-01-17T11:57:50.472Z,73.59
2023-01-17T12:00:46.913Z,74.97
2023-01-17T12:03:51.486Z,74.12
2023-01-17T12:06:57.671Z,73.36
2023-01-17T12:10:09.988Z,75.02
2023-01-17T12:13:41.307Z,74.71
2023-01-17T12:16:45.455Z,74.61
2023-01-17T12:19:34.346Z,75.14
2023-01-17T12:22:20.021Z,74.52
2023-01-17T12:25:23.669Z,74.69
2023-01-17T12:28:12.163Z,74.31
2023-01-17T12:31:18.191Z,74.67
2023-01-17T12:34:27.083Z,74.63
2023-01-17T12:37:30.537Z,73.89
2023-01-17T12:40:42.820Z,74.15
2023-01-17T12:43:37.383Z,74.32
2023-01-17T12:46:44.145Z,74.65
2023-01-17T12:49:40.696Z,74.34
2023-01-17T12:52:51.243Z,74.16
2023-01-17T12:56:16.676Z,74.12
2023-01-17T12:59:26.933Z,74.57
2023-01-17T13:02:34.533Z,71.55
2023-01-17T13:05:46.724Z,72.38
2023-01-17T13:08:43.835Z,73.35
2023-01-17T13:11:49.922Z,72.89
2023-01-17T13:14:35.922Z,73.07
2023-01-17T13:17:34.991Z,73.81
2023-01-17T13:20:33.122Z,75.08
2023-01-17T13:23:38.010Z,74.25
2023-01-17T13:26:33.793Z,74.49
2023-01-17T13:29:56.211Z,73.64
2023-01-17T13:33:01.618Z,74.16
2023-01-17T13:36:08.322Z,73.19
2023-01-17T13:39:12.711Z,74.16
2023-01-17T13:42:23.093Z,74.12
2023-01-17T13:45:17.627Z,74.08
2023-01-17T13:48:11.990Z,74.11
2023-01-17T13:51:17.015Z,73.66
2023-01-17T13:54:07.492Z,74.38
2023-01-17T13:57:27.323Z,74.53
2023-01-17T14:00:21.544Z,74.16
2023-01-17T14:03:11.644Z,73.71
2023-01-17T14:05:57.624Z,73.77
2023-01-17T14:08:45.487Z,73.48
2023-01-17T14:11:55.154Z,73.58
2023-01-17T14:14:41.019Z,73.76
2023-01-17T14:17:34.203Z,74.35
2023-01-17T14:20:25.862Z,73.62
2023-01-17T14:23:33.042Z,73.72
2023-01-17T14:26:28.945Z,74.14
2023-01-17T14:29:42.692Z,74.38
2023-01-17T14:32:32.611Z,74.21
2023-01-17T14:35:23.108Z,74.68
2023-01-17T14:38:31.617Z,74.16
2023-01-17T14:41:23.591Z,73.79
2023-01-17T14:44:14.874Z,74.46
2023-01-17T14:47:00.662Z,75.16
2023-01-17T14:49:46.066Z,74.33
2023-01-17T14:52:31.577Z,74.82
2023-01-17T14:55:20.305Z,75.22
2023-01-17T14:58:06.316Z,75.21
2023-01-17T15:00:56.483Z,74.63
2023-01-17T15:03:48.974Z,74.87
2023-01-17T15:06:40.738Z,74.85
2023-01-17T15:09:29.930Z,74.84
2023-01-17T15:12:15.387Z,74.69
2023-01-17T15:15:01.316Z,75.03
2023-01-17T15:17:46.962Z,75.21
2023-01-17T15:20:32.332Z,75.43
2023-01-17T15:23:21.308Z,75.88
2023-01-17T15:26:08.279Z,75.31
2023-01-17T15:29:03.953Z,75.12
2023-01-17T15:31:56.169Z,75.14
2023-01-17T15:34:46.875Z,76.01
2023-01-17T15:37:39.830Z,75.10
2023-01-17T15:40:26.667Z,74.22
2023-01-17T15:43:20.113Z,74.48
2023-01-17T15:46:05.754Z,74.54
2023-01-17T15:48:51.926Z,75.06
2023-01-17T15:51:39.032Z,76.09
2023-01-17T15:54:41.664Z,76.15
2023-01-17T15:57:28.561Z,76.28
2023-01-17T16:00:15.856Z,75.97
2023-01-17T16:03:01.389Z,76.38
2023-01-17T16:05:47.663Z,76.55
2023-01-17T16:08:38.613Z,76.90
2023-01-17T16:11:24.387Z,76.96
2023-01-17T16:14:10.303Z,77.32
2023-01-17T16:16:55.724Z,76.91
2023-01-17T16:19:41.787Z,76.89
2023-01-17T16:22:27.294Z,77.33
2023-01-17T16:25:15.120Z,77.11
2023-01-17T16:28:01.178Z,77.06
2023-01-17T16:30:48.488Z,77.22
2023-01-17T16:33:33.833Z,77.44
2023-01-17T16:36:21.238Z,77.46
2023-01-17T16:39:07.442Z,77.17
2023-01-17T16:42:00.988Z,77.39
2023-01-17T16:44:46.202Z,77.32
2023-01-17T16:47:31.550Z,77.81
2023-01-17T16:50:23.198Z,77.92
2023-01-17T16:53:08.705Z,77.72
2023-01-17T16:55:59.669Z,77.43
2023-01-17T16:58:45.452Z,77.52
2023-01-17T17:01:31.050Z,77.66
2023-01-17T17:04:16.303Z,78.17
2023-01-17T17:07:01.734Z,78.66
2023-01-17T17:09:47.623Z,78.58
2023-01-17T17:12:33.291Z,78.75
2023-01-17T17:15:19.115Z,78.47
2023-01-17T17:18:04.630Z,78.19
2023-01-17T17:20:49.943Z,78.51
2023-01-17T17:23:35.303Z,78.70
2023-01-17T17:26:20.620Z,78.33
2023-01-17T17:29:10.555Z,78.24
2023-01-17T17:31:55.763Z,78.93
2023-01-17T17:34:41.294Z,78.50
2023-01-17T17:37:29.087Z,79.07
2023-01-17T17:40:14.874Z,78.39
2023-01-17T17:43:00.429Z,78.42
2023-01-17T17:45:45.756Z,79.04
2023-01-17T17:48:31.143Z,78.96
2023-01-17T17:51:24.050Z,78.56
2023-01-17T17:54:11.646Z,78.91
2023-01-17T17:56:57.273Z,78.41
2023-01-17T17:59:42.777Z,78.75
2023-01-17T18:02:28.199Z,79.36
2023-01-17T18:05:13.595Z,79.48
2023-01-17T18:08:00.758Z,79.52
2023-01-17T18:10:46.492Z,79.60
2023-01-17T18:13:32.598Z,79.03
2023-01-17T18:16:27.779Z,79.80
2023-01-17T18:19:22.336Z,79.99
2023-01-17T18:22:08.142Z,80.15
2023-01-17T18:24:53.700Z,80.00
2023-01-17T18:27:39.771Z,80.00
2023-01-17T18:30:25.442Z,80.08
2023-01-17T18:33:10.873Z,79.97
2023-01-17T18:35:58.760Z,80.18
2023-01-17T18:38:46.955Z,80.08
2023-01-17T18:41:32.309Z,80.50
2023-01-17T18:44:21.838Z,80.22
2023-01-17T18:47:07.649Z,80.54
2023-01-17T18:49:53.713Z,80.37
2023-01-17T18:52:40.789Z,80.58
2023-01-17T18:55:26.067Z,81.12
2023-01-17T18:58:11.448Z,81.08
2023-01-17T19:01:06.634Z,81.07
2023-01-17T19:03:54.671Z,80.97
2023-01-17T19:06:46.608Z,81.07
2023-01-17T19:09:32.247Z,81.50
2023-01-17T19:12:19.038Z,81.45
2023-01-17T19:15:06.931Z,81.54
2023-01-17T19:17:52.722Z,81.74
2023-01-17T19:20:39.104Z,81.76
2023-01-17T19:23:24.421Z,81.80
2023-01-17T19:26:11.223Z,81.99
2023-01-17T19:28:58.893Z,81.94
2023-01-17T19:31:44.775Z,82.24
2023-01-17T19:34:30.637Z,82.43
2023-01-17T19:37:16.242Z,82.69
2023-01-17T19:40:01.739Z,82.47
2023-01-17T19:42:47.640Z,82.78
2023-01-17T19:45:33.048Z,82.64
2023-01-17T19:48:18.209Z,82.80
2023-01-17T19:51:09.721Z,83.10
2023-01-17T19:53:55.310Z,82.66
2023-01-17T19:56:40.597Z,83.02
2023-01-17T19:59:26.014Z,83.05
2023-01-17T20:02:11.639Z,83.41
2023-01-17T20:04:57.044Z,83.75
2023-01-17T20:07:43.720Z,83.76
2023-01-17T20:10:29.693Z,83.85
2023-01-17T20:13:15.493Z,83.41
2023-01-17T20:16:06.272Z,83.49
2023-01-17T20:18:52.203Z,82.93
2023-01-17T20:21:38.098Z,83.44
2023-01-17T20:24:24.183Z,83.38
2023-01-17T20:27:09.527Z,83.37
2023-01-17T20:29:54.856Z,83.48
2023-01-17T20:32:40.242Z,83.45
2023-01-17T20:35:25.936Z,83.84
2023-01-17T20:38:11.941Z,83.42
2023-01-17T20:40:57.267Z,84.08
2023-01-17T20:43:51.205Z,83.91
2023-01-17T20:46:40.636Z,83.57
2023-01-17T20:49:26.286Z,83.75
2023-01-17T20:52:14.567Z,83.44
2023-01-17T20:55:00.460Z,83.40
2023-01-17T20:57:45.858Z,83.55
2023-01-17T21:00:31.391Z,83.59
2023-01-17T21:03:16.611Z,83.09
2023-01-17T21:06:09.836Z,83.47
2023-01-17T21:08:55.418Z,83.39
2023-01-17T21:11:40.846Z,83.24
2023-01-17T21:14:29.616Z,83.47
2023-01-17T21:17:16.481Z,83.52
2023-01-17T21:20:06.666Z,83.81
2023-01-17T21:22:52.303Z,83.34
2023-01-17T21:25:38.583Z,83.72
2023-01-17T21:28:26.229Z,83.48
2023-01-17T21:31:25.017Z,83.54
2023-01-17T21:34:11.652Z,83.76
2023-01-17T21:36:57.444Z,83.88
2023-01-17T21:39:43.062Z,83.89
2023-01-17T21:42:28.540Z,83.75
2023-01-17T21:45:13.959Z,83.64
2023-01-17T21:47:59.454Z,83.43
2023-01-17T21:50:45.363Z,83.93
2023-01-17T21:53:33.082Z,84.20
2023-01-17T21:56:37.255Z,83.97
2023-01-17T21:59:22.604Z,84.29
2023-01-17T22:02:10.496Z,83.69
2023-01-17T22:04:56.318Z,83.95
2023-01-17T22:08:01.457Z,83.84
2023-01-17T22:10:46.998Z,84.39
2023-01-17T22:13:32.711Z,84.39
2023-01-17T22:16:20.537Z,84.52
2023-01-17T22:19:05.842Z,84.37
2023-01-17T22:21:51.362Z,84.45
2023-01-17T22:24:37.796Z,84.29
2023-01-17T22:27:23.090Z,84.19
2023-01-17T22:30:09.234Z,84.03
2023-01-17T22:32:58.372Z,84.31
2023-01-17T22:35:44.108Z,84.49
2023-01-17T22:38:29.947Z,84.39
2023-01-17T22:41:19.943Z,84.24
2023-01-17T22:44:05.545Z,84.49
2023-01-17T22:46:51.129Z,84.74
2023-01-17T22:49:36.416Z,84.61
2023-01-17T22:52:21.795Z,84.89
2023-01-17T22:55:07.402Z,84.71
2023-01-17T22:57:53.055Z,84.99
2023-01-17T23:00:38.322Z,85.07
2023-01-17T23:03:24.378Z,84.85
2023-01-17T23:06:13.925Z,85.06
2023-01-17T23:09:02.643Z,85.22
2023-01-17T23:11:52.946Z,84.89
2023-01-17T23:14:57.125Z,84.91
2023-01-17T23:18:00.831Z,84.99
2023-01-17T23:20:46.357Z,84.64
2023-01-17T23:23:32.162Z,84.90
2023-01-17T23:26:17.806Z,84.90
2023-01-17T23:29:03.456Z,84.61
2023-01-17T23:31:48.983Z,84.81
2023-01-17T23:34:34.421Z,84.87
2023-01-17T23:37:20.014Z,84.92
2023-01-17T23:40:06.171Z,85.08
2023-01-17T23:43:10.128Z,84.72
2023-01-17T23:45:55.513Z,84.88
2023-01-17T23:48:40.821Z,85.24
2023-01-17T23:51:26.047Z,84.70
2023-01-17T23:54:11.291Z,84.72
2023-01-17T23:56:56.671Z,85.06
2023-01-17T23:59:42.071Z,85.27
